Time;durP1;ratioP1;P1;durP2;ratioP2;P2;SDS_P1;SDS_P2;PMS_P1;PMS_P2;Temp;Humidity;BMP_temperature;BMP_pressure;BME280_temperature;BME280_humidity;BME280_pressure;Samples;Min_cycle;Max_cycle;Signal;HPM_P1;HPM_P2
2023/12/26 00:01:12;;;;;;;9.90;2.75;;;;;;;;;;5134155;27;20458;-69
2023/12/26 00:03:37;;;;;;;8.35;2.47;;;;;;;;;;5133300;27;20027;-70
2023/12/26 00:06:02;;;;;;;7.85;2.40;;;;;;;;;;5134055;27;20046;-69
2023/12/26 00:08:28;;;;;;;5.07;1.83;;;;;;;;;;5134073;27;20472;-69
2023/12/26 00:10:53;;;;;;;6.22;1.75;;;;;;;;;;5134147;27;20110;-69
2023/12/26 00:13:19;;;;;;;4.65;1.88;;;;;;;;;;5133946;27;20114;-69
2023/12/26 00:15:44;;;;;;;7.97;1.63;;;;;;;;;;5134028;27;20068;-69
2023/12/26 00:18:10;;;;;;;8.35;1.50;;;;;;;;;;5133984;27;20031;-69
2023/12/26 00:20:39;;;;;;;5.63;1.45;;;;;;;;;;5133523;27;20061;-69
2023/12/26 00:23:05;;;;;;;4.90;1.67;;;;;;;;;;5133983;27;20031;-69
2023/12/26 00:25:30;;;;;;;7.78;1.83;;;;;;;;;;5133762;27;20549;-69
2023/12/26 00:27:56;;;;;;;6.95;1.52;;;;;;;;;;5133740;27;20030;-69
2023/12/26 00:30:21;;;;;;;5.38;1.92;;;;;;;;;;5133688;27;20026;-69
2023/12/26 00:32:47;;;;;;;5.45;1.50;;;;;;;;;;5133600;27;20106;-69
2023/12/26 00:35:13;;;;;;;2.97;1.23;;;;;;;;;;5133350;27;20030;-69
2023/12/26 00:37:39;;;;;;;4.47;1.58;;;;;;;;;;5133479;27;20019;-69
2023/12/26 00:40:05;;;;;;;5.10;1.27;;;;;;;;;;5133567;27;20034;-70
2023/12/26 00:42:30;;;;;;;4.22;1.35;;;;;;;;;;5133565;27;20026;-69
2023/12/26 00:44:56;;;;;;;4.05;1.50;;;;;;;;;;5134039;27;20385;-69
2023/12/26 00:47:21;;;;;;;4.47;1.70;;;;;;;;;;5154233;27;20449;-69
2023/12/26 00:49:47;;;;;;;4.88;1.55;;;;;;;;;;5153924;27;20022;-69
2023/12/26 00:52:12;;;;;;;4.22;1.85;;;;;;;;;;5153935;27;20043;-69
2023/12/26 00:54:38;;;;;;;4.90;1.70;;;;;;;;;;5145284;27;20053;-69
2023/12/26 00:57:03;;;;;;;6.97;1.90;;;;;;;;;;5133277;28;20037;-69
2023/12/26 00:59:29;;;;;;;4.47;1.63;;;;;;;;;;5133460;28;20027;-69
2023/12/26 01:01:54;;;;;;;4.22;2.42;;;;;;;;;;5133319;28;20106;-69
2023/12/26 01:04:22;;;;;;;6.57;2.20;;;;;;;;;;5133209;28;20083;-69
2023/12/26 01:06:47;;;;;;;3.97;2.20;;;;;;;;;;5133447;28;20419;-69
2023/12/26 01:09:13;;;;;;;6.20;2.50;;;;;;;;;;5133256;28;20152;-69
2023/12/26 01:11:38;;;;;;;7.13;2.92;;;;;;;;;;5133248;28;20023;-69
2023/12/26 01:14:04;;;;;;;4.88;2.50;;;;;;;;;;5133235;27;20055;-70
2023/12/26 01:16:29;;;;;;;4.78;2.30;;;;;;;;;;5137287;27;20098;-69
2023/12/26 01:18:55;;;;;;;6.63;2.70;;;;;;;;;;5137185;27;20023;-70
2023/12/26 01:21:20;;;;;;;6.00;2.80;;;;;;;;;;5137405;27;20074;-70
2023/12/26 01:23:46;;;;;;;5.55;2.92;;;;;;;;;;5137291;27;20037;-70
2023/12/26 01:26:11;;;;;;;4.38;2.65;;;;;;;;;;5137332;27;20019;-70
2023/12/26 01:28:37;;;;;;;4.40;2.55;;;;;;;;;;5137172;27;20419;-70
2023/12/26 01:31:02;;;;;;;4.65;2.70;;;;;;;;;;5137018;27;20102;-71
2023/12/26 01:33:28;;;;;;;4.88;2.78;;;;;;;;;;5136847;27;20059;-70
2023/12/26 01:35:53;;;;;;;5.10;2.45;;;;;;;;;;5136992;27;20027;-70
2023/12/26 01:38:19;;;;;;;6.72;2.50;;;;;;;;;;5136896;27;20029;-70
2023/12/26 01:40:45;;;;;;;4.40;2.50;;;;;;;;;;5137057;27;20031;-70
2023/12/26 01:43:10;;;;;;;4.28;2.30;;;;;;;;;;5136956;27;20478;-70
2023/12/26 01:45:36;;;;;;;4.47;2.40;;;;;;;;;;5143326;27;20361;-71
2023/12/26 01:48:04;;;;;;;6.40;2.75;;;;;;;;;;5157398;27;20023;-70
2023/12/26 01:50:30;;;;;;;4.47;2.63;;;;;;;;;;5157429;27;20131;-70
2023/12/26 01:52:56;;;;;;;5.93;2.67;;;;;;;;;;5157156;27;20085;-70
2023/12/26 01:55:22;;;;;;;4.80;2.70;;;;;;;;;;5142175;27;20434;-70
2023/12/26 01:57:49;;;;;;;5.47;2.75;;;;;;;;;;5136683;27;20523;-70
2023/12/26 02:00:14;;;;;;;3.40;2.45;;;;;;;;;;5148710;27;20105;-70
2023/12/26 02:02:42;;;;;;;4.85;2.83;;;;;;;;;;5138666;27;20081;-70
2023/12/26 02:05:08;;;;;;;6.70;3.03;;;;;;;;;;5136430;27;20039;-70
2023/12/26 02:07:34;;;;;;;3.92;2.75;;;;;;;;;;5136420;27;20031;-70
2023/12/26 02:10:00;;;;;;;6.30;3.08;;;;;;;;;;5136340;27;20028;-71
2023/12/26 02:12:26;;;;;;;5.30;2.50;;;;;;;;;;5136166;27;20034;-70
2023/12/26 02:14:52;;;;;;;5.32;2.38;;;;;;;;;;5136205;27;20363;-70
2023/12/26 02:17:23;;;;;;;4.30;2.30;;;;;;;;;;5135956;27;20544;-70
2023/12/26 02:19:49;;;;;;;3.88;1.88;;;;;;;;;;5136185;27;20378;-70
2023/12/26 02:22:14;;;;;;;4.55;2.28;;;;;;;;;;5135998;27;20072;-70
2023/12/26 02:24:43;;;;;;;3.67;2.20;;;;;;;;;;5136083;27;20027;-70
2023/12/26 02:27:14;;;;;;;4.55;2.15;;;;;;;;;;5134649;27;20027;-70
2023/12/26 02:29:41;;;;;;;3.33;2.00;;;;;;;;;;5135518;27;20023;-70
2023/12/26 02:32:09;;;;;;;3.97;2.05;;;;;;;;;;5135277;27;20023;-70
2023/12/26 02:34:35;;;;;;;4.15;2.00;;;;;;;;;;5132679;27;20037;-70
2023/12/26 02:37:01;;;;;;;4.22;1.70;;;;;;;;;;5135471;27;20529;-71
2023/12/26 02:39:27;;;;;;;2.42;1.50;;;;;;;;;;5135806;27;20062;-68
2023/12/26 02:41:52;;;;;;;3.42;1.45;;;;;;;;;;5135780;27;20381;-70
2023/12/26 02:44:18;;;;;;;3.90;1.55;;;;;;;;;;5135440;27;20031;-70
2023/12/26 02:46:43;;;;;;;6.80;1.60;;;;;;;;;;5135355;27;20094;-70
2023/12/26 02:49:08;;;;;;;3.35;1.58;;;;;;;;;;5135284;27;20024;-70
2023/12/26 02:51:35;;;;;;;3.28;1.60;;;;;;;;;;5135345;27;20046;-70
2023/12/26 02:54:00;;;;;;;3.28;2.30;;;;;;;;;;5135392;27;20184;-70
2023/12/26 02:56:26;;;;;;;2.78;1.70;;;;;;;;;;5135437;27;20105;-70
2023/12/26 02:58:51;;;;;;;3.67;1.80;;;;;;;;;;5135275;27;20463;-70
2023/12/26 03:01:16;;;;;;;2.60;1.50;;;;;;;;;;5135048;27;20031;-70
2023/12/26 03:03:42;;;;;;;2.47;1.38;;;;;;;;;;5135232;27;20034;-70
2023/12/26 03:06:07;;;;;;;4.43;1.42;;;;;;;;;;5135283;27;20031;-70
2023/12/26 03:08:33;;;;;;;3.78;1.30;;;;;;;;;;5135234;27;20462;-70
2023/12/26 03:10:58;;;;;;;2.38;1.33;;;;;;;;;;5135090;27;20451;-70
2023/12/26 03:13:24;;;;;;;2.10;1.30;;;;;;;;;;5135098;27;20059;-70
2023/12/26 03:15:49;;;;;;;3.75;1.70;;;;;;;;;;5134832;27;20467;-70
2023/12/26 03:18:14;;;;;;;2.92;1.38;;;;;;;;;;5134909;27;20023;-70
2023/12/26 03:20:40;;;;;;;2.75;1.10;;;;;;;;;;5134231;27;20023;-70
2023/12/26 03:23:05;;;;;;;2.97;1.70;;;;;;;;;;5134836;27;20055;-70
2023/12/26 03:25:31;;;;;;;2.15;1.30;;;;;;;;;;5134914;27;20067;-70
2023/12/26 03:27:56;;;;;;;1.95;1.25;;;;;;;;;;5134946;27;20426;-70
2023/12/26 03:30:21;;;;;;;3.88;1.30;;;;;;;;;;5134651;27;20015;-70
2023/12/26 03:32:47;;;;;;;1.25;1.02;;;;;;;;;;5134641;27;20019;-70
2023/12/26 03:35:13;;;;;;;2.00;1.10;;;;;;;;;;5134640;27;20023;-70
2023/12/26 03:37:38;;;;;;;3.08;1.30;;;;;;;;;;5134673;27;20027;-70
2023/12/26 03:40:04;;;;;;;3.90;1.48;;;;;;;;;;5134694;27;20461;-70
2023/12/26 03:42:31;;;;;;;3.75;1.33;;;;;;;;;;5134620;27;20111;-70
2023/12/26 03:44:57;;;;;;;1.52;1.00;;;;;;;;;;5133850;27;20034;-70
2023/12/26 03:47:22;;;;;;;1.58;1.08;;;;;;;;;;5134462;27;20369;-70
2023/12/26 03:49:48;;;;;;;2.28;1.30;;;;;;;;;;5134445;27;20022;-70
2023/12/26 03:52:13;;;;;;;3.95;1.30;;;;;;;;;;5134029;27;20101;-70
2023/12/26 03:54:40;;;;;;;1.95;1.30;;;;;;;;;;5134080;27;20022;-70
2023/12/26 03:57:07;;;;;;;2.05;1.30;;;;;;;;;;5134280;27;20526;-70
2023/12/26 03:59:33;;;;;;;1.45;1.15;;;;;;;;;;5134072;27;20019;-70
2023/12/26 04:01:59;;;;;;;2.03;1.17;;;;;;;;;;5134150;27;20027;-70
2023/12/26 04:04:24;;;;;;;1.83;1.10;;;;;;;;;;5134175;27;20072;-70
2023/12/26 04:06:49;;;;;;;1.60;1.10;;;;;;;;;;5134183;27;20027;-70
2023/12/26 04:09:18;;;;;;;1.55;1.05;;;;;;;;;;5133751;27;20037;-71
2023/12/26 04:11:44;;;;;;;1.58;0.95;;;;;;;;;;5134076;27;20027;-70
2023/12/26 04:14:09;;;;;;;1.30;1.00;;;;;;;;;;5133413;27;20541;-70
2023/12/26 04:16:35;;;;;;;2.58;1.00;;;;;;;;;;5133956;27;20050;-70
2023/12/26 04:19:00;;;;;;;1.77;1.17;;;;;;;;;;5133927;27;20031;-70
2023/12/26 04:21:26;;;;;;;2.30;1.02;;;;;;;;;;5133919;27;20030;-70
2023/12/26 04:23:51;;;;;;;1.73;0.90;;;;;;;;;;5133942;27;20031;-70
2023/12/26 04:26:16;;;;;;;1.33;0.90;;;;;;;;;;5133757;27;20023;-70
2023/12/26 04:28:42;;;;;;;1.65;0.80;;;;;;;;;;5133609;27;20031;-70
2023/12/26 04:31:07;;;;;;;0.50;0.50;;;;;;;;;;5133687;27;20083;-70
2023/12/26 04:33:33;;;;;;;1.15;0.85;;;;;;;;;;5133638;27;20023;-70
2023/12/26 04:35:58;;;;;;;1.73;0.90;;;;;;;;;;5133708;27;20047;-70
2023/12/26 04:38:23;;;;;;;1.50;0.80;;;;;;;;;;5133338;27;20106;-70
2023/12/26 04:40:49;;;;;;;0.80;0.80;;;;;;;;;;5133537;27;20098;-70
2023/12/26 04:43:17;;;;;;;2.10;0.80;;;;;;;;;;5133221;27;20030;-70
2023/12/26 04:45:42;;;;;;;1.50;0.80;;;;;;;;;;5133144;27;20030;-70
2023/12/26 04:48:08;;;;;;;1.95;0.73;;;;;;;;;;5133604;27;20031;-70
2023/12/26 04:50:34;;;;;;;0.63;0.60;;;;;;;;;;5132978;27;20172;-70
2023/12/26 04:53:01;;;;;;;0.63;0.63;;;;;;;;;;5133172;27;20065;-70
2023/12/26 04:55:26;;;;;;;2.00;1.10;;;;;;;;;;5133534;27;20106;-70
2023/12/26 04:57:52;;;;;;;1.77;0.88;;;;;;;;;;5133208;28;20510;-70
2023/12/26 05:00:18;;;;;;;1.42;0.82;;;;;;;;;;5133302;28;20141;-70
2023/12/26 05:02:43;;;;;;;2.30;0.80;;;;;;;;;;5133225;28;20106;-70
2023/12/26 05:05:08;;;;;;;1.35;0.98;;;;;;;;;;5133192;28;20019;-70
2023/12/26 05:07:34;;;;;;;1.42;0.90;;;;;;;;;;5133439;28;20098;-70
2023/12/26 05:09:59;;;;;;;1.90;0.70;;;;;;;;;;5133370;28;20023;-70
2023/12/26 05:12:27;;;;;;;0.80;0.80;;;;;;;;;;5132816;28;20015;-70
2023/12/26 05:14:52;;;;;;;0.85;0.75;;;;;;;;;;5133194;28;20470;-70
2023/12/26 05:17:18;;;;;;;2.13;0.75;;;;;;;;;;5133182;28;20033;-70
2023/12/26 05:19:44;;;;;;;0.95;0.70;;;;;;;;;;5132870;28;20033;-70
2023/12/26 05:22:10;;;;;;;1.08;0.80;;;;;;;;;;5131874;28;20023;-70
2023/12/26 05:24:35;;;;;;;0.80;0.80;;;;;;;;;;5112602;28;20114;-70
2023/12/26 05:27:01;;;;;;;1.55;0.93;;;;;;;;;;5112222;28;20055;-70
2023/12/26 05:29:26;;;;;;;1.40;0.80;;;;;;;;;;5112655;28;20501;-70
2023/12/26 05:31:52;;;;;;;1.45;0.73;;;;;;;;;;5112593;28;20020;-70
2023/12/26 05:34:18;;;;;;;1.00;0.90;;;;;;;;;;5112536;28;20080;-70
2023/12/26 05:36:44;;;;;;;2.97;0.90;;;;;;;;;;5112603;28;20031;-70
2023/12/26 05:39:10;;;;;;;1.33;0.90;;;;;;;;;;5110880;28;20122;-70
2023/12/26 05:41:36;;;;;;;2.13;0.70;;;;;;;;;;5112318;28;20024;-70
2023/12/26 05:44:01;;;;;;;1.20;0.80;;;;;;;;;;5113729;28;20085;-70
2023/12/26 05:46:30;;;;;;;1.65;0.90;;;;;;;;;;5132828;28;20060;-70
2023/12/26 05:48:56;;;;;;;0.93;0.73;;;;;;;;;;5132701;27;20362;-70
2023/12/26 05:51:22;;;;;;;1.73;0.90;;;;;;;;;;5132672;27;20416;-70
2023/12/26 05:53:48;;;;;;;2.17;0.98;;;;;;;;;;5132879;27;20515;-70
2023/12/26 05:56:13;;;;;;;1.40;1.00;;;;;;;;;;5132774;28;20114;-70
2023/12/26 05:58:40;;;;;;;1.08;0.77;;;;;;;;;;5133002;28;20023;-70
2023/12/26 06:01:12;;;;;;;0.70;0.70;;;;;;;;;;5132717;27;20080;-70
2023/12/26 06:03:38;;;;;;;0.90;0.80;;;;;;;;;;5136308;27;20027;-70
2023/12/26 06:06:08;;;;;;;1.20;0.80;;;;;;;;;;5136527;27;20080;-70
2023/12/26 06:08:33;;;;;;;0.73;0.70;;;;;;;;;;5136170;27;20500;-70
2023/12/26 06:10:59;;;;;;;1.00;0.77;;;;;;;;;;5117843;27;20031;-70
2023/12/26 06:13:24;;;;;;;0.90;0.70;;;;;;;;;;5136365;27;20058;-70
2023/12/26 06:15:50;;;;;;;0.90;0.70;;;;;;;;;;5136232;27;20109;-70
2023/12/26 06:18:15;;;;;;;0.90;0.70;;;;;;;;;;5136212;27;20015;-70
2023/12/26 06:20:40;;;;;;;1.10;0.60;;;;;;;;;;5136099;27;20383;-70
2023/12/26 06:23:06;;;;;;;0.85;0.73;;;;;;;;;;5135897;27;20046;-70
2023/12/26 06:25:31;;;;;;;0.80;0.60;;;;;;;;;;5136064;27;20019;-70
2023/12/26 06:27:56;;;;;;;0.70;0.70;;;;;;;;;;5136016;27;20492;-70
2023/12/26 06:30:22;;;;;;;2.35;0.80;;;;;;;;;;5135781;27;20026;-70
2023/12/26 06:32:47;;;;;;;0.75;0.60;;;;;;;;;;5135892;27;20024;-70
2023/12/26 06:35:13;;;;;;;1.42;0.70;;;;;;;;;;5135923;27;20493;-70
2023/12/26 06:37:38;;;;;;;0.70;0.68;;;;;;;;;;5135297;27;20442;-70
2023/12/26 06:40:05;;;;;;;1.17;0.77;;;;;;;;;;5135604;27;20508;-70
2023/12/26 06:42:30;;;;;;;0.98;0.70;;;;;;;;;;5135717;27;20073;-70
2023/12/26 06:44:56;;;;;;;0.63;0.63;;;;;;;;;;5135281;27;20058;-70
2023/12/26 06:47:21;;;;;;;1.27;0.77;;;;;;;;;;5135596;27;20023;-70
2023/12/26 06:49:46;;;;;;;0.85;0.70;;;;;;;;;;5135341;27;20019;-70
2023/12/26 06:52:14;;;;;;;1.17;0.70;;;;;;;;;;5133497;27;20050;-70
2023/12/26 06:54:41;;;;;;;0.73;0.70;;;;;;;;;;5135508;27;20538;-68
2023/12/26 06:57:08;;;;;;;0.70;0.60;;;;;;;;;;5135256;27;20030;-68
2023/12/26 06:59:34;;;;;;;0.60;0.60;;;;;;;;;;5135326;27;20023;-70
2023/12/26 07:02:00;;;;;;;0.60;0.60;;;;;;;;;;5135246;27;20019;-70
2023/12/26 07:04:26;;;;;;;0.70;0.70;;;;;;;;;;5135248;27;20062;-70
2023/12/26 07:06:52;;;;;;;0.90;0.80;;;;;;;;;;5135052;27;20418;-70
2023/12/26 07:09:17;;;;;;;0.98;0.63;;;;;;;;;;5135165;27;20037;-70
2023/12/26 07:11:42;;;;;;;0.65;0.63;;;;;;;;;;5135065;27;20030;-70
2023/12/26 07:14:08;;;;;;;2.47;0.77;;;;;;;;;;5134710;27;20049;-70
2023/12/26 07:16:35;;;;;;;0.80;0.70;;;;;;;;;;5135102;27;20104;-69
2023/12/26 07:19:01;;;;;;;0.98;0.70;;;;;;;;;;5134707;27;20038;-68
2023/12/26 07:21:26;;;;;;;0.80;0.70;;;;;;;;;;5134863;27;20016;-69
2023/12/26 07:23:52;;;;;;;4.65;1.13;;;;;;;;;;5134804;27;20649;-69
2023/12/26 07:26:17;;;;;;;0.82;0.60;;;;;;;;;;5134651;27;20023;-69
2023/12/26 07:28:42;;;;;;;1.27;0.70;;;;;;;;;;5134703;27;20030;-69
2023/12/26 07:31:08;;;;;;;2.42;0.60;;;;;;;;;;5134716;27;20403;-69
2023/12/26 07:33:33;;;;;;;0.98;0.88;;;;;;;;;;5116138;27;20457;-68
2023/12/26 07:36:00;;;;;;;0.85;0.70;;;;;;;;;;5134394;27;20027;-69
2023/12/26 07:38:25;;;;;;;1.25;1.00;;;;;;;;;;5134174;27;20038;-69
2023/12/26 07:40:50;;;;;;;1.65;0.70;;;;;;;;;;5134620;27;20031;-69
2023/12/26 07:43:16;;;;;;;4.63;0.80;;;;;;;;;;5134373;27;20054;-69
2023/12/26 07:45:42;;;;;;;0.70;0.70;;;;;;;;;;5134163;27;20069;-68
2023/12/26 07:48:07;;;;;;;1.17;0.90;;;;;;;;;;5134053;27;20458;-69
2023/12/26 07:50:33;;;;;;;1.15;0.70;;;;;;;;;;5134110;27;20031;-69
2023/12/26 07:52:58;;;;;;;1.30;0.75;;;;;;;;;;5133762;27;20485;-68
2023/12/26 07:55:23;;;;;;;1.55;0.75;;;;;;;;;;5134230;27;20023;-69
2023/12/26 07:57:50;;;;;;;1.45;1.02;;;;;;;;;;5134167;27;20107;-69
2023/12/26 08:00:16;;;;;;;3.13;1.33;;;;;;;;;;5134188;27;20027;-69
2023/12/26 08:02:42;;;;;;;1.42;0.95;;;;;;;;;;5133936;27;20039;-68
2023/12/26 08:05:07;;;;;;;3.00;1.23;;;;;;;;;;5133650;27;20018;-69
2023/12/26 08:07:33;;;;;;;2.42;1.00;;;;;;;;;;5133758;27;20019;-68
2023/12/26 08:09:58;;;;;;;1.92;0.82;;;;;;;;;;5134224;27;20027;-69
2023/12/26 08:12:23;;;;;;;1.55;0.70;;;;;;;;;;5133785;27;20051;-69
2023/12/26 08:14:49;;;;;;;2.30;1.33;;;;;;;;;;5133926;27;20023;-68
2023/12/26 08:17:14;;;;;;;1.30;0.88;;;;;;;;;;5133597;27;20426;-68
2023/12/26 08:19:40;;;;;;;1.40;0.90;;;;;;;;;;5133393;27;20031;-69
2023/12/26 08:22:05;;;;;;;1.75;1.02;;;;;;;;;;5133832;27;20027;-69
2023/12/26 08:24:31;;;;;;;2.38;1.52;;;;;;;;;;5132900;27;20428;-68
2023/12/26 08:26:57;;;;;;;2.45;0.90;;;;;;;;;;5133602;27;20027;-69
2023/12/26 08:29:23;;;;;;;3.17;0.88;;;;;;;;;;5133606;27;20030;-69
2023/12/26 08:31:48;;;;;;;3.03;1.33;;;;;;;;;;5133473;27;20477;-69
2023/12/26 08:34:14;;;;;;;6.20;1.50;;;;;;;;;;5133308;27;20023;-70
2023/12/26 08:36:39;;;;;;;2.63;0.95;;;;;;;;;;5133366;27;20023;-68
2023/12/26 08:39:05;;;;;;;3.33;1.17;;;;;;;;;;5133241;27;20019;-69
2023/12/26 08:41:30;;;;;;;1.52;0.70;;;;;;;;;;5133590;27;20056;-71
2023/12/26 08:43:56;;;;;;;2.13;0.93;;;;;;;;;;5133374;27;20461;-69
2023/12/26 08:46:21;;;;;;;1.52;0.80;;;;;;;;;;5133393;27;20450;-69
2023/12/26 08:48:47;;;;;;;3.53;1.40;;;;;;;;;;5133057;27;20023;-69
2023/12/26 08:51:13;;;;;;;1.63;0.90;;;;;;;;;;5132995;27;20045;-69
2023/12/26 08:53:40;;;;;;;4.80;1.08;;;;;;;;;;5133207;27;20379;-69
2023/12/26 08:56:05;;;;;;;1.20;0.80;;;;;;;;;;5133286;27;20046;-69
2023/12/26 08:58:35;;;;;;;2.65;0.90;;;;;;;;;;5132936;27;20023;-69
2023/12/26 09:01:01;;;;;;;8.38;1.50;;;;;;;;;;5133132;28;20057;-69
2023/12/26 09:03:27;;;;;;;4.40;1.10;;;;;;;;;;5132769;28;20080;-69
2023/12/26 09:05:53;;;;;;;1.75;0.95;;;;;;;;;;5133267;28;20027;-69
2023/12/26 09:08:18;;;;;;;3.85;1.17;;;;;;;;;;5114811;28;20235;-69
2023/12/26 09:10:44;;;;;;;3.67;0.90;;;;;;;;;;5133226;28;20035;-69
2023/12/26 09:13:11;;;;;;;7.18;1.17;;;;;;;;;;5133040;28;20469;-69
2023/12/26 09:15:36;;;;;;;2.33;1.10;;;;;;;;;;5132890;28;20035;-69
2023/12/26 09:18:02;;;;;;;2.65;0.90;;;;;;;;;;5132964;28;20095;-69
2023/12/26 09:20:28;;;;;;;3.30;1.05;;;;;;;;;;5132884;28;20023;-69
2023/12/26 09:22:53;;;;;;;4.15;1.40;;;;;;;;;;5133056;28;20030;-69
2023/12/26 09:25:19;;;;;;;3.55;1.23;;;;;;;;;;5132827;28;20188;-69
2023/12/26 09:27:44;;;;;;;2.90;1.13;;;;;;;;;;5132931;28;20034;-69
2023/12/26 09:30:10;;;;;;;3.83;1.23;;;;;;;;;;5132928;28;20024;-69
2023/12/26 09:32:36;;;;;;;3.97;1.52;;;;;;;;;;5132595;28;20019;-69
2023/12/26 09:35:01;;;;;;;6.45;1.13;;;;;;;;;;5132378;28;20377;-69
2023/12/26 09:37:26;;;;;;;3.10;1.02;;;;;;;;;;5136030;27;20072;-69
2023/12/26 09:39:52;;;;;;;4.13;1.05;;;;;;;;;;5136113;27;20023;-69
2023/12/26 09:42:24;;;;;;;4.38;1.15;;;;;;;;;;5136391;27;20045;-69
2023/12/26 09:44:49;;;;;;;3.13;1.40;;;;;;;;;;5133469;27;20080;-69
2023/12/26 09:47:16;;;;;;;3.45;1.40;;;;;;;;;;5133897;27;20450;-69
2023/12/26 09:49:43;;;;;;;4.43;1.30;;;;;;;;;;5136129;27;20342;-69
2023/12/26 09:52:10;;;;;;;7.40;1.30;;;;;;;;;;5135715;27;20092;-69
2023/12/26 09:54:38;;;;;;;4.75;1.35;;;;;;;;;;5135924;27;20469;-69
2023/12/26 09:57:07;;;;;;;4.53;1.50;;;;;;;;;;5135852;27;20023;-69
2023/12/26 09:59:35;;;;;;;6.72;1.75;;;;;;;;;;5133523;27;20019;-69
2023/12/26 10:02:01;;;;;;;7.00;1.70;;;;;;;;;;5135844;27;20051;-69
2023/12/26 10:04:26;;;;;;;4.97;1.65;;;;;;;;;;5136457;27;20063;-68
2023/12/26 10:06:52;;;;;;;3.75;1.20;;;;;;;;;;5136386;27;20027;-69
2023/12/26 10:09:19;;;;;;;6.95;1.65;;;;;;;;;;5136370;27;20442;-69
2023/12/26 10:11:45;;;;;;;5.07;1.50;;;;;;;;;;5136323;27;20023;-69
2023/12/26 10:14:11;;;;;;;3.35;1.20;;;;;;;;;;5136246;27;20099;-68
2023/12/26 10:16:36;;;;;;;4.97;1.45;;;;;;;;;;5135989;27;20038;-68
2023/12/26 10:19:02;;;;;;;8.20;1.40;;;;;;;;;;5136121;27;20020;-69
2023/12/26 10:21:28;;;;;;;7.43;1.20;;;;;;;;;;5136068;27;20464;-69
2023/12/26 10:23:56;;;;;;;4.65;1.60;;;;;;;;;;5136063;27;20027;-69
2023/12/26 10:26:22;;;;;;;5.32;1.30;;;;;;;;;;5135928;27;20027;-69
2023/12/26 10:28:50;;;;;;;3.78;1.20;;;;;;;;;;5135837;27;20484;-69
2023/12/26 10:31:18;;;;;;;4.97;1.35;;;;;;;;;;5135734;27;20470;-69
2023/12/26 10:33:44;;;;;;;4.97;1.33;;;;;;;;;;5136158;27;20037;-68
2023/12/26 10:36:12;;;;;;;4.35;1.10;;;;;;;;;;5135835;27;20539;-69
2023/12/26 10:38:44;;;;;;;7.47;1.92;;;;;;;;;;5135942;27;20119;-68
2023/12/26 10:41:27;;;;;;;5.72;1.13;;;;;;;;;;5135775;27;20042;-69
2023/12/26 10:43:58;;;;;;;3.75;1.45;;;;;;;;;;5135194;27;20019;-69
2023/12/26 10:46:24;;;;;;;5.15;1.40;;;;;;;;;;5135660;27;20381;-68
2023/12/26 10:48:53;;;;;;;2.80;1.40;;;;;;;;;;5134985;27;20023;-68
2023/12/26 10:51:23;;;;;;;6.25;1.67;;;;;;;;;;5135333;27;20031;-69
2023/12/26 10:53:55;;;;;;;;;;;;;;;;;;5135546;27;20043;-69
2023/12/26 10:56:23;;;;;;;3.83;1.20;;;;;;;;;;5117600;27;20010;-68
2023/12/26 10:58:52;;;;;;;6.70;1.73;;;;;;;;;;5135262;27;20019;-68
2023/12/26 11:01:17;;;;;;;8.18;1.98;;;;;;;;;;5135350;27;20031;-69
2023/12/26 11:03:43;;;;;;;4.18;1.20;;;;;;;;;;5135213;27;20035;-68
2023/12/26 11:06:08;;;;;;;6.10;1.45;;;;;;;;;;5135194;27;20044;-69
2023/12/26 11:08:34;;;;;;;4.57;1.20;;;;;;;;;;5135424;27;20023;-69
2023/12/26 11:11:00;;;;;;;5.70;1.38;;;;;;;;;;5135167;27;20023;-68
2023/12/26 11:13:25;;;;;;;5.45;1.40;;;;;;;;;;5134807;27;20076;-70
2023/12/26 11:15:52;;;;;;;9.90;1.92;;;;;;;;;;5134730;27;20385;-68
2023/12/26 11:18:20;;;;;;;6.00;1.55;;;;;;;;;;5134939;27;20030;-68
2023/12/26 11:20:46;;;;;;;5.15;1.33;;;;;;;;;;5134965;27;20020;-69
2023/12/26 11:23:12;;;;;;;6.35;1.60;;;;;;;;;;5134916;27;20019;-68
2023/12/26 11:25:37;;;;;;;8.20;2.08;;;;;;;;;;5135041;27;20148;-68
2023/12/26 11:28:02;;;;;;;4.65;1.30;;;;;;;;;;5134608;27;20027;-68
2023/12/26 11:30:29;;;;;;;9.95;1.85;;;;;;;;;;5116561;27;20523;-68
2023/12/26 11:32:55;;;;;;;9.13;1.63;;;;;;;;;;5134770;27;20031;-69
2023/12/26 11:35:21;;;;;;;2.42;1.20;;;;;;;;;;5134522;27;20027;-69
2023/12/26 11:37:48;;;;;;;6.35;1.40;;;;;;;;;;5134569;27;20054;-68
2023/12/26 11:40:13;;;;;;;10.07;1.73;;;;;;;;;;5134469;27;20030;-69
2023/12/26 11:42:39;;;;;;;3.72;1.83;;;;;;;;;;5134380;27;20525;-69
2023/12/26 11:45:04;;;;;;;7.78;1.70;;;;;;;;;;5133965;27;20353;-69
2023/12/26 11:47:30;;;;;;;6.07;1.23;;;;;;;;;;5134312;27;20438;-68
2023/12/26 11:49:55;;;;;;;4.40;1.38;;;;;;;;;;5134617;27;20432;-68
2023/12/26 11:52:21;;;;;;;5.82;1.27;;;;;;;;;;5133961;27;20043;-68
2023/12/26 11:54:46;;;;;;;3.15;1.10;;;;;;;;;;5134106;27;20038;-69
2023/12/26 11:57:11;;;;;;;7.03;1.58;;;;;;;;;;5133792;27;20038;-69
2023/12/26 11:59:37;;;;;;;10.35;1.90;;;;;;;;;;5132777;27;20042;-68
2023/12/26 12:02:03;;;;;;;4.75;1.70;;;;;;;;;;5133862;27;20408;-68
2023/12/26 12:04:29;;;;;;;4.80;1.00;;;;;;;;;;5134053;27;20094;-69
2023/12/26 12:07:11;;;;;;;3.17;0.93;;;;;;;;;;5134170;27;20016;-69
2023/12/26 12:09:37;;;;;;;9.35;1.60;;;;;;;;;;5134063;27;20035;-68
2023/12/26 12:12:03;;;;;;;5.43;1.85;;;;;;;;;;5133595;27;20023;-69
2023/12/26 12:14:28;;;;;;;1.65;0.90;;;;;;;;;;5133678;27;20038;-71
2023/12/26 12:16:54;;;;;;;4.82;1.15;;;;;;;;;;5133781;27;20474;-69
2023/12/26 12:19:19;;;;;;;7.70;1.20;;;;;;;;;;5133872;27;20023;-69
2023/12/26 12:21:45;;;;;;;3.50;1.15;;;;;;;;;;5133838;27;20023;-69
2023/12/26 12:24:18;;;;;;;3.47;1.10;;;;;;;;;;5133708;27;20461;-68
2023/12/26 12:27:04;;;;;;;5.65;1.52;;;;;;;;;;5133444;27;20362;-69
2023/12/26 12:30:00;;;;;;;2.75;1.02;;;;;;;;;;5133635;27;20077;-69
2023/12/26 12:32:30;;;;;;;4.97;0.93;;;;;;;;;;5133700;27;20058;-69
2023/12/26 12:35:16;;;;;;;5.00;1.23;;;;;;;;;;5133724;27;20023;-69
2023/12/26 12:37:42;;;;;;;4.35;1.10;;;;;;;;;;5133429;27;20015;-70
2023/12/26 12:40:08;;;;;;;4.95;1.90;;;;;;;;;;5133436;27;20031;-72
2023/12/26 12:42:34;;;;;;;8.82;1.50;;;;;;;;;;5133727;27;20111;-69
2023/12/26 12:45:00;;;;;;;3.85;1.20;;;;;;;;;;5133170;27;20042;-69
2023/12/26 12:47:26;;;;;;;7.30;1.80;;;;;;;;;;5133456;27;20026;-69
2023/12/26 12:49:54;;;;;;;10.55;1.88;;;;;;;;;;5133515;27;20520;-69
2023/12/26 12:52:19;;;;;;;5.07;1.45;;;;;;;;;;5132785;27;20043;-71
2023/12/26 12:54:45;;;;;;;4.25;1.00;;;;;;;;;;5133109;27;20058;-71
2023/12/26 12:57:10;;;;;;;7.35;2.55;;;;;;;;;;5133103;27;20059;-71
2023/12/26 12:59:36;;;;;;;4.93;1.20;;;;;;;;;;5133074;27;20025;-71
2023/12/26 13:02:02;;;;;;;4.85;1.55;;;;;;;;;;5133145;28;20473;-71
2023/12/26 13:04:28;;;;;;;6.20;2.03;;;;;;;;;;5133277;28;20085;-71
2023/12/26 13:06:56;;;;;;;4.10;1.42;;;;;;;;;;5133313;28;20381;-71
2023/12/26 13:09:21;;;;;;;5.45;1.40;;;;;;;;;;5132809;28;20027;-71
2023/12/26 13:11:46;;;;;;;6.15;1.73;;;;;;;;;;5136055;27;20480;-71
2023/12/26 13:14:16;;;;;;;5.25;1.60;;;;;;;;;;5137036;27;20023;-70
2023/12/26 13:16:42;;;;;;;3.50;1.50;;;;;;;;;;5137592;27;20042;-71
2023/12/26 13:19:09;;;;;;;5.03;1.50;;;;;;;;;;5137227;27;20109;-70
2023/12/26 13:21:34;;;;;;;2.78;1.10;;;;;;;;;;5137341;27;20023;-69
2023/12/26 13:23:59;;;;;;;2.47;1.25;;;;;;;;;;5137027;27;20031;-69
2023/12/26 13:26:25;;;;;;;6.43;1.17;;;;;;;;;;5137199;27;20060;-70
2023/12/26 13:28:50;;;;;;;10.32;1.60;;;;;;;;;;5137261;27;20023;-69
2023/12/26 13:31:16;;;;;;;6.53;1.33;;;;;;;;;;5137057;27;20019;-70
2023/12/26 13:33:41;;;;;;;7.13;1.95;;;;;;;;;;5137007;27;20132;-71
2023/12/26 13:36:07;;;;;;;3.38;1.40;;;;;;;;;;5137181;27;20027;-70
2023/12/26 13:38:32;;;;;;;5.65;1.27;;;;;;;;;;5136787;27;20522;-71
2023/12/26 13:40:57;;;;;;;5.18;1.35;;;;;;;;;;5136999;27;20027;-71
2023/12/26 13:43:23;;;;;;;5.57;1.40;;;;;;;;;;5136678;27;20027;-70
2023/12/26 13:45:48;;;;;;;3.33;0.95;;;;;;;;;;5140751;27;20075;-69
2023/12/26 13:48:14;;;;;;;5.75;1.35;;;;;;;;;;5156743;27;20019;-69
2023/12/26 13:50:39;;;;;;;5.13;1.75;;;;;;;;;;5135653;27;20394;-69
2023/12/26 13:53:04;;;;;;;2.85;1.15;;;;;;;;;;5137084;27;20039;-69
2023/12/26 13:55:30;;;;;;;6.07;1.80;;;;;;;;;;5156461;27;20022;-69
2023/12/26 13:57:55;;;;;;;3.30;1.33;;;;;;;;;;5146812;27;20019;-69
2023/12/26 14:00:21;;;;;;;3.67;1.20;;;;;;;;;;5136185;27;20035;-69
2023/12/26 14:02:46;;;;;;;3.78;1.13;;;;;;;;;;5116935;27;20457;-69
2023/12/26 14:05:11;;;;;;;2.50;1.30;;;;;;;;;;5136626;27;20023;-69
2023/12/26 14:07:37;;;;;;;1.95;0.82;;;;;;;;;;5134344;27;20023;-69
2023/12/26 14:10:03;;;;;;;6.03;1.30;;;;;;;;;;5134548;27;20021;-69
2023/12/26 14:12:29;;;;;;;2.65;1.00;;;;;;;;;;5134515;27;20391;-69
2023/12/26 14:14:54;;;;;;;5.78;1.27;;;;;;;;;;5134232;27;20023;-69
2023/12/26 14:17:20;;;;;;;3.30;0.88;;;;;;;;;;5134596;27;20019;-69
2023/12/26 14:19:45;;;;;;;3.90;1.10;;;;;;;;;;5134409;27;20023;-69
2023/12/26 14:22:11;;;;;;;7.03;1.40;;;;;;;;;;5133956;27;20381;-69
2023/12/26 14:24:36;;;;;;;4.45;1.10;;;;;;;;;;5136254;27;20035;-69
2023/12/26 14:27:03;;;;;;;3.80;1.30;;;;;;;;;;5136037;27;20473;-69
2023/12/26 14:29:29;;;;;;;4.07;1.30;;;;;;;;;;5135908;27;20023;-69
2023/12/26 14:31:54;;;;;;;3.40;1.08;;;;;;;;;;5136116;27;20433;-70
2023/12/26 14:34:20;;;;;;;3.92;1.40;;;;;;;;;;5136108;27;20481;-69
2023/12/26 14:36:45;;;;;;;5.90;1.90;;;;;;;;;;5135761;27;20019;-69